sensor_id;sensor_type;location;lat;lon;timestamp;temperature;humidity
2729;DHT22;1372;47.956;7.830;2023-02-11T00:00:10;-1.30;99.90
2729;DHT22;1372;47.956;7.830;2023-02-11T00:02:39;-1.30;99.90
2729;DHT22;1372;47.956;7.830;2023-02-11T00:05:09;-1.30;99.90
2729;DHT22;1372;47.956;7.830;2023-02-11T00:07:39;-1.40;99.90
2729;DHT22;1372;47.956;7.830;2023-02-11T00:10:08;-1.40;99.90
2729;DHT22;1372;47.956;7.830;2023-02-11T00:12:38;-1.50;99.90
2729;DHT22;1372;47.956;7.830;2023-02-11T00:15:09;-1.40;99.90
2729;DHT22;1372;47.956;7.830;2023-02-11T00:17:38;-1.30;99.90
2729;DHT22;1372;47.956;7.830;2023-02-11T00:20:08;-1.40;99.90
2729;DHT22;1372;47.956;7.830;2023-02-11T00:22:38;-1.30;99.90
2729;DHT22;1372;47.956;7.830;2023-02-11T00:25:10;-1.30;99.90
2729;DHT22;1372;47.956;7.830;2023-02-11T00:27:39;-1.30;99.90
2729;DHT22;1372;47.956;7.830;2023-02-11T00:30:09;-1.30;99.90
2729;DHT22;1372;47.956;7.830;2023-02-11T00:32:38;-1.40;99.90
2729;DHT22;1372;47.956;7.830;2023-02-11T00:35:08;-1.50;99.90
2729;DHT22;1372;47.956;7.830;2023-02-11T00:37:38;-1.50;99.90
2729;DHT22;1372;47.956;7.830;2023-02-11T00:40:08;-1.50;99.90
2729;DHT22;1372;47.956;7.830;2023-02-11T00:42:37;-1.60;99.90
2729;DHT22;1372;47.956;7.830;2023-02-11T00:45:07;-1.60;99.90
2729;DHT22;1372;47.956;7.830;2023-02-11T00:47:36;-1.50;99.90
2729;DHT22;1372;47.956;7.830;2023-02-11T00:50:05;-1.60;99.90
2729;DHT22;1372;47.956;7.830;2023-02-11T00:52:34;-1.70;99.90
2729;DHT22;1372;47.956;7.830;2023-02-11T00:55:06;-1.70;99.90
2729;DHT22;1372;47.956;7.830;2023-02-11T00:57:35;-1.60;99.90
2729;DHT22;1372;47.956;7.830;2023-02-11T01:00:05;-1.70;99.90
2729;DHT22;1372;47.956;7.830;2023-02-11T01:02:35;-1.70;99.90
2729;DHT22;1372;47.956;7.830;2023-02-11T01:05:05;-1.70;99.90
2729;DHT22;1372;47.956;7.830;2023-02-11T01:07:34;-1.80;99.90
2729;DHT22;1372;47.956;7.830;2023-02-11T01:10:05;-1.90;99.90
2729;DHT22;1372;47.956;7.830;2023-02-11T01:12:33;-1.90;99.90
2729;DHT22;1372;47.956;7.830;2023-02-11T01:15:03;-1.70;99.90
2729;DHT22;1372;47.956;7.830;2023-02-11T01:17:33;-1.70;99.90
2729;DHT22;1372;47.956;7.830;2023-02-11T01:20:05;-1.50;99.90
2729;DHT22;1372;47.956;7.830;2023-02-11T01:22:36;-1.60;99.90
2729;DHT22;1372;47.956;7.830;2023-02-11T01:25:08;-1.70;99.90
2729;DHT22;1372;47.956;7.830;2023-02-11T01:27:36;-1.80;99.90
2729;DHT22;1372;47.956;7.830;2023-02-11T01:30:08;-1.80;99.90
2729;DHT22;1372;47.956;7.830;2023-02-11T01:32:40;-1.90;99.90
2729;DHT22;1372;47.956;7.830;2023-02-11T01:35:09;-1.90;99.90
2729;DHT22;1372;47.956;7.830;2023-02-11T01:37:37;-1.90;99.90
2729;DHT22;1372;47.956;7.830;2023-02-11T01:40:13;-2.00;99.90
2729;DHT22;1372;47.956;7.830;2023-02-11T01:42:46;-1.80;99.90
2729;DHT22;1372;47.956;7.830;2023-02-11T01:45:53;-2.00;99.90
2729;DHT22;1372;47.956;7.830;2023-02-11T01:48:28;-2.00;99.90
2729;DHT22;1372;47.956;7.830;2023-02-11T01:51:03;-2.10;99.90
2729;DHT22;1372;47.956;7.830;2023-02-11T01:53:36;-2.10;99.90
2729;DHT22;1372;47.956;7.830;2023-02-11T01:56:26;-2.20;99.90
2729;DHT22;1372;47.956;7.830;2023-02-11T01:59:17;-2.10;99.90
2729;DHT22;1372;47.956;7.830;2023-02-11T02:01:55;-2.10;99.90
2729;DHT22;1372;47.956;7.830;2023-02-11T02:04:27;-2.10;99.90
2729;DHT22;1372;47.956;7.830;2023-02-11T02:07:02;-2.10;99.90
2729;DHT22;1372;47.956;7.830;2023-02-11T02:09:38;-2.20;99.90
2729;DHT22;1372;47.956;7.830;2023-02-11T02:12:14;-2.20;99.90
2729;DHT22;1372;47.956;7.830;2023-02-11T02:14:42;-2.10;99.90
2729;DHT22;1372;47.956;7.830;2023-02-11T02:17:21;-2.20;99.90
2729;DHT22;1372;47.956;7.830;2023-02-11T02:23:21;-2.10;99.90
2729;DHT22;1372;47.956;7.830;2023-02-11T02:29:44;-2.20;99.90
2729;DHT22;1372;47.956;7.830;2023-02-11T02:36:04;-2.10;99.90
2729;DHT22;1372;47.956;7.830;2023-02-11T02:38:39;-2.20;99.90
2729;DHT22;1372;47.956;7.830;2023-02-11T02:41:13;-2.30;99.90
2729;DHT22;1372;47.956;7.830;2023-02-11T02:43:48;-2.20;99.90
2729;DHT22;1372;47.956;7.830;2023-02-11T02:46:20;-2.30;99.90
2729;DHT22;1372;47.956;7.830;2023-02-11T02:48:52;-2.20;99.90
2729;DHT22;1372;47.956;7.830;2023-02-11T02:51:35;-2.10;99.90
2729;DHT22;1372;47.956;7.830;2023-02-11T02:54:32;-2.10;99.90
2729;DHT22;1372;47.956;7.830;2023-02-11T02:57:29;-2.20;99.90
2729;DHT22;1372;47.956;7.830;2023-02-11T03:00:17;-2.20;99.90
2729;DHT22;1372;47.956;7.830;2023-02-11T03:03:00;-2.30;99.90
2729;DHT22;1372;47.956;7.830;2023-02-11T03:05:47;-2.30;99.90
2729;DHT22;1372;47.956;7.830;2023-02-11T03:08:25;-2.20;99.90
2729;DHT22;1372;47.956;7.830;2023-02-11T03:10:57;-2.20;99.90
2729;DHT22;1372;47.956;7.830;2023-02-11T03:13:29;-2.20;99.90
2729;DHT22;1372;47.956;7.830;2023-02-11T03:16:05;-2.30;99.90
2729;DHT22;1372;47.956;7.830;2023-02-11T03:18:38;-2.20;99.90
2729;DHT22;1372;47.956;7.830;2023-02-11T03:21:10;-2.20;99.90
2729;DHT22;1372;47.956;7.830;2023-02-11T03:23:46;-2.10;99.90
2729;DHT22;1372;47.956;7.830;2023-02-11T03:26:22;-2.20;99.90
2729;DHT22;1372;47.956;7.830;2023-02-11T03:28:55;-2.20;99.90
2729;DHT22;1372;47.956;7.830;2023-02-11T03:31:36;-2.20;99.90
2729;DHT22;1372;47.956;7.830;2023-02-11T03:34:13;-2.20;99.90
2729;DHT22;1372;47.956;7.830;2023-02-11T03:36:47;-2.10;99.90
2729;DHT22;1372;47.956;7.830;2023-02-11T03:39:22;-2.00;99.90
2729;DHT22;1372;47.956;7.830;2023-02-11T03:41:54;-2.20;99.90
2729;DHT22;1372;47.956;7.830;2023-02-11T03:44:31;-2.00;99.90
2729;DHT22;1372;47.956;7.830;2023-02-11T03:47:04;-1.80;99.90
2729;DHT22;1372;47.956;7.830;2023-02-11T03:49:37;-1.90;99.90
2729;DHT22;1372;47.956;7.830;2023-02-11T03:52:08;-2.00;99.90
2729;DHT22;1372;47.956;7.830;2023-02-11T03:54:41;-2.10;99.90
2729;DHT22;1372;47.956;7.830;2023-02-11T03:57:11;-2.20;99.90
2729;DHT22;1372;47.956;7.830;2023-02-11T03:59:50;-2.00;99.90
2729;DHT22;1372;47.956;7.830;2023-02-11T04:02:21;-1.90;99.90
2729;DHT22;1372;47.956;7.830;2023-02-11T04:04:51;-2.00;99.90
2729;DHT22;1372;47.956;7.830;2023-02-11T04:07:19;-2.10;99.90
2729;DHT22;1372;47.956;7.830;2023-02-11T04:09:50;-2.20;99.90
2729;DHT22;1372;47.956;7.830;2023-02-11T04:12:19;-2.10;99.90
2729;DHT22;1372;47.956;7.830;2023-02-11T04:14:47;-2.10;99.90
2729;DHT22;1372;47.956;7.830;2023-02-11T04:17:16;-2.20;99.90
2729;DHT22;1372;47.956;7.830;2023-02-11T04:19:45;-2.30;99.90
2729;DHT22;1372;47.956;7.830;2023-02-11T04:22:14;-2.20;99.90
2729;DHT22;1372;47.956;7.830;2023-02-11T04:24:43;-2.00;99.90
2729;DHT22;1372;47.956;7.830;2023-02-11T04:27:14;-2.10;99.90
2729;DHT22;1372;47.956;7.830;2023-02-11T04:29:43;-1.90;99.90
2729;DHT22;1372;47.956;7.830;2023-02-11T04:32:11;-1.80;99.90
2729;DHT22;1372;47.956;7.830;2023-02-11T04:34:40;-1.90;99.90
2729;DHT22;1372;47.956;7.830;2023-02-11T04:37:09;-1.90;99.90
2729;DHT22;1372;47.956;7.830;2023-02-11T04:39:38;-1.90;99.90
2729;DHT22;1372;47.956;7.830;2023-02-11T04:42:07;-2.00;99.90
2729;DHT22;1372;47.956;7.830;2023-02-11T04:44:37;-2.10;99.90
2729;DHT22;1372;47.956;7.830;2023-02-11T04:47:06;-2.20;99.90
2729;DHT22;1372;47.956;7.830;2023-02-11T04:49:37;-2.20;99.90
2729;DHT22;1372;47.956;7.830;2023-02-11T04:52:08;-2.20;99.90
2729;DHT22;1372;47.956;7.830;2023-02-11T04:54:37;-2.00;99.90
2729;DHT22;1372;47.956;7.830;2023-02-11T04:57:06;-1.90;99.90
2729;DHT22;1372;47.956;7.830;2023-02-11T04:59:36;-2.00;99.90
2729;DHT22;1372;47.956;7.830;2023-02-11T05:02:05;-1.90;99.90
2729;DHT22;1372;47.956;7.830;2023-02-11T05:04:34;-2.00;99.90
2729;DHT22;1372;47.956;7.830;2023-02-11T05:07:02;-1.90;99.90
2729;DHT22;1372;47.956;7.830;2023-02-11T05:09:31;-1.90;99.90
2729;DHT22;1372;47.956;7.830;2023-02-11T05:12:00;-2.00;99.90
2729;DHT22;1372;47.956;7.830;2023-02-11T05:14:28;-2.10;99.90
2729;DHT22;1372;47.956;7.830;2023-02-11T05:16:58;-2.10;99.90
2729;DHT22;1372;47.956;7.830;2023-02-11T05:19:27;-2.00;99.90
2729;DHT22;1372;47.956;7.830;2023-02-11T05:21:59;-2.00;99.90
2729;DHT22;1372;47.956;7.830;2023-02-11T05:24:30;-1.90;99.90
2729;DHT22;1372;47.956;7.830;2023-02-11T05:27:01;-2.00;99.90
2729;DHT22;1372;47.956;7.830;2023-02-11T05:29:30;-2.10;99.90
2729;DHT22;1372;47.956;7.830;2023-02-11T05:32:00;-2.20;99.90
2729;DHT22;1372;47.956;7.830;2023-02-11T05:34:29;-2.30;99.90
2729;DHT22;1372;47.956;7.830;2023-02-11T05:37:00;-2.10;99.90
2729;DHT22;1372;47.956;7.830;2023-02-11T05:39:29;-2.10;99.90
2729;DHT22;1372;47.956;7.830;2023-02-11T05:41:58;-2.20;99.90
2729;DHT22;1372;47.956;7.830;2023-02-11T05:44:26;-2.10;99.90
2729;DHT22;1372;47.956;7.830;2023-02-11T05:46:55;-2.10;99.90
2729;DHT22;1372;47.956;7.830;2023-02-11T05:49:25;-2.00;99.90
2729;DHT22;1372;47.956;7.830;2023-02-11T05:51:54;-1.80;99.90
2729;DHT22;1372;47.956;7.830;2023-02-11T05:54:22;-1.70;99.90
2729;DHT22;1372;47.956;7.830;2023-02-11T05:56:51;-1.70;99.90
2729;DHT22;1372;47.956;7.830;2023-02-11T05:59:20;-1.80;99.90
2729;DHT22;1372;47.956;7.830;2023-02-11T06:01:48;-1.70;99.90
2729;DHT22;1372;47.956;7.830;2023-02-11T06:04:17;-1.70;99.90
2729;DHT22;1372;47.956;7.830;2023-02-11T06:06:47;-1.70;99.90
2729;DHT22;1372;47.956;7.830;2023-02-11T06:09:16;-1.70;99.90
2729;DHT22;1372;47.956;7.830;2023-02-11T06:11:44;-1.70;99.90
2729;DHT22;1372;47.956;7.830;2023-02-11T06:14:13;-1.70;99.90
2729;DHT22;1372;47.956;7.830;2023-02-11T06:16:42;-1.60;99.90
2729;DHT22;1372;47.956;7.830;2023-02-11T06:19:11;-1.60;99.90
2729;DHT22;1372;47.956;7.830;2023-02-11T06:21:40;-1.70;99.90
2729;DHT22;1372;47.956;7.830;2023-02-11T06:24:12;-1.70;99.90
2729;DHT22;1372;47.956;7.830;2023-02-11T06:26:42;-1.70;99.90
2729;DHT22;1372;47.956;7.830;2023-02-11T06:29:10;-1.70;99.90
2729;DHT22;1372;47.956;7.830;2023-02-11T06:31:40;-1.70;99.90
2729;DHT22;1372;47.956;7.830;2023-02-11T06:34:11;-1.80;99.90
2729;DHT22;1372;47.956;7.830;2023-02-11T06:36:40;-1.70;99.90
2729;DHT22;1372;47.956;7.830;2023-02-11T06:39:12;-1.40;99.90
2729;DHT22;1372;47.956;7.830;2023-02-11T06:41:41;-1.40;99.90
2729;DHT22;1372;47.956;7.830;2023-02-11T06:44:10;-1.40;99.90
2729;DHT22;1372;47.956;7.830;2023-02-11T06:46:38;-1.60;99.90
2729;DHT22;1372;47.956;7.830;2023-02-11T06:49:07;-1.80;99.90
2729;DHT22;1372;47.956;7.830;2023-02-11T06:51:36;-1.70;99.90
2729;DHT22;1372;47.956;7.830;2023-02-11T06:54:05;-1.70;99.90
2729;DHT22;1372;47.956;7.830;2023-02-11T06:56:39;-1.70;99.90
2729;DHT22;1372;47.956;7.830;2023-02-11T06:59:20;-1.70;99.90
2729;DHT22;1372;47.956;7.830;2023-02-11T07:01:49;-1.70;99.90
2729;DHT22;1372;47.956;7.830;2023-02-11T07:04:18;-1.80;99.90
2729;DHT22;1372;47.956;7.830;2023-02-11T07:06:46;-1.90;99.90
2729;DHT22;1372;47.956;7.830;2023-02-11T07:09:15;-1.90;99.90
2729;DHT22;1372;47.956;7.830;2023-02-11T07:11:45;-1.80;99.90
2729;DHT22;1372;47.956;7.830;2023-02-11T07:14:14;-1.80;99.90
2729;DHT22;1372;47.956;7.830;2023-02-11T07:16:43;-1.80;99.90
2729;DHT22;1372;47.956;7.830;2023-02-11T07:19:12;-1.70;99.90
2729;DHT22;1372;47.956;7.830;2023-02-11T07:21:40;-1.60;99.90
2729;DHT22;1372;47.956;7.830;2023-02-11T07:24:09;-1.60;99.90
2729;DHT22;1372;47.956;7.830;2023-02-11T07:26:38;-1.60;99.90
2729;DHT22;1372;47.956;7.830;2023-02-11T07:29:08;-1.70;99.90
2729;DHT22;1372;47.956;7.830;2023-02-11T07:31:37;-1.60;99.90
2729;DHT22;1372;47.956;7.830;2023-02-11T07:34:06;-1.50;99.90
2729;DHT22;1372;47.956;7.830;2023-02-11T07:36:37;-1.40;99.90
2729;DHT22;1372;47.956;7.830;2023-02-11T07:39:06;-1.30;99.90
2729;DHT22;1372;47.956;7.830;2023-02-11T07:41:35;-1.20;99.90
2729;DHT22;1372;47.956;7.830;2023-02-11T07:44:04;-1.20;99.90
2729;DHT22;1372;47.956;7.830;2023-02-11T07:46:35;-1.20;99.90
2729;DHT22;1372;47.956;7.830;2023-02-11T07:49:10;-1.10;99.90
2729;DHT22;1372;47.956;7.830;2023-02-11T07:51:44;-1.00;99.90
2729;DHT22;1372;47.956;7.830;2023-02-11T07:54:18;-0.90;99.90
2729;DHT22;1372;47.956;7.830;2023-02-11T07:56:47;-0.80;99.90
2729;DHT22;1372;47.956;7.830;2023-02-11T07:59:16;-0.70;99.90
2729;DHT22;1372;47.956;7.830;2023-02-11T08:01:46;-0.60;99.90
2729;DHT22;1372;47.956;7.830;2023-02-11T08:04:17;-0.60;99.90
2729;DHT22;1372;47.956;7.830;2023-02-11T08:06:47;-0.50;99.90
2729;DHT22;1372;47.956;7.830;2023-02-11T08:09:20;-0.40;99.90
2729;DHT22;1372;47.956;7.830;2023-02-11T08:11:49;-0.40;99.90
2729;DHT22;1372;47.956;7.830;2023-02-11T08:14:20;-0.30;99.90
2729;DHT22;1372;47.956;7.830;2023-02-11T08:17:00;-0.10;99.90
2729;DHT22;1372;47.956;7.830;2023-02-11T08:19:29;-0.10;99.90
2729;DHT22;1372;47.956;7.830;2023-02-11T08:22:01;0.00;99.90
2729;DHT22;1372;47.956;7.830;2023-02-11T08:24:29;0.10;99.90
2729;DHT22;1372;47.956;7.830;2023-02-11T08:26:59;0.10;99.90
2729;DHT22;1372;47.956;7.830;2023-02-11T08:29:28;0.20;99.90
2729;DHT22;1372;47.956;7.830;2023-02-11T08:32:08;0.40;99.90
2729;DHT22;1372;47.956;7.830;2023-02-11T08:34:38;0.50;99.90
2729;DHT22;1372;47.956;7.830;2023-02-11T08:37:07;0.50;99.90
2729;DHT22;1372;47.956;7.830;2023-02-11T08:39:36;0.60;99.90
2729;DHT22;1372;47.956;7.830;2023-02-11T08:42:05;0.60;99.90
2729;DHT22;1372;47.956;7.830;2023-02-11T08:44:33;0.80;99.90
2729;DHT22;1372;47.956;7.830;2023-02-11T08:47:03;0.80;99.90
2729;DHT22;1372;47.956;7.830;2023-02-11T08:49:33;0.90;99.90
2729;DHT22;1372;47.956;7.830;2023-02-11T08:52:13;1.00;99.90
2729;DHT22;1372;47.956;7.830;2023-02-11T08:54:47;1.10;99.90
2729;DHT22;1372;47.956;7.830;2023-02-11T08:57:23;1.10;99.90
2729;DHT22;1372;47.956;7.830;2023-02-11T09:00:02;1.20;99.90
2729;DHT22;1372;47.956;7.830;2023-02-11T09:02:51;1.30;99.90
2729;DHT22;1372;47.956;7.830;2023-02-11T09:05:52;1.30;99.90
2729;DHT22;1372;47.956;7.830;2023-02-11T09:08:21;1.30;99.90
2729;DHT22;1372;47.956;7.830;2023-02-11T09:10:57;1.40;99.90
2729;DHT22;1372;47.956;7.830;2023-02-11T09:13:32;1.30;99.90
2729;DHT22;1372;47.956;7.830;2023-02-11T09:16:03;1.30;99.90
2729;DHT22;1372;47.956;7.830;2023-02-11T09:18:33;1.40;99.90
2729;DHT22;1372;47.956;7.830;2023-02-11T09:21:07;1.40;99.90
2729;DHT22;1372;47.956;7.830;2023-02-11T09:23:38;1.50;99.90
2729;DHT22;1372;47.956;7.830;2023-02-11T09:26:13;1.60;99.90
2729;DHT22;1372;47.956;7.830;2023-02-11T09:28:45;1.70;99.90
2729;DHT22;1372;47.956;7.830;2023-02-11T09:31:16;1.80;99.90
2729;DHT22;1372;47.956;7.830;2023-02-11T09:33:49;1.90;99.90
2729;DHT22;1372;47.956;7.830;2023-02-11T09:36:23;2.00;99.90
2729;DHT22;1372;47.956;7.830;2023-02-11T09:38:53;2.00;99.90
2729;DHT22;1372;47.956;7.830;2023-02-11T09:41:36;2.10;99.90
2729;DHT22;1372;47.956;7.830;2023-02-11T09:44:17;2.20;99.90
2729;DHT22;1372;47.956;7.830;2023-02-11T09:46:53;2.30;99.90
2729;DHT22;1372;47.956;7.830;2023-02-11T09:49:33;2.40;99.90
2729;DHT22;1372;47.956;7.830;2023-02-11T09:52:14;2.40;99.90
2729;DHT22;1372;47.956;7.830;2023-02-11T09:54:53;2.50;99.90
2729;DHT22;1372;47.956;7.830;2023-02-11T09:57:45;2.50;99.90
2729;DHT22;1372;47.956;7.830;2023-02-11T10:00:30;2.60;99.90
2729;DHT22;1372;47.956;7.830;2023-02-11T10:06:19;2.80;99.90
2729;DHT22;1372;47.956;7.830;2023-02-11T10:09:13;3.00;99.90
2729;DHT22;1372;47.956;7.830;2023-02-11T10:11:54;3.00;99.90
2729;DHT22;1372;47.956;7.830;2023-02-11T10:14:47;3.00;99.90
2729;DHT22;1372;47.956;7.830;2023-02-11T10:17:46;3.10;99.90
2729;DHT22;1372;47.956;7.830;2023-02-11T10:20:31;3.20;99.90
2729;DHT22;1372;47.956;7.830;2023-02-11T10:23:09;3.30;99.90
2729;DHT22;1372;47.956;7.830;2023-02-11T10:26:02;3.50;99.90
2729;DHT22;1372;47.956;7.830;2023-02-11T10:28:44;3.60;99.90
2729;DHT22;1372;47.956;7.830;2023-02-11T10:31:17;3.70;99.90
2729;DHT22;1372;47.956;7.830;2023-02-11T10:34:00;3.80;99.90
2729;DHT22;1372;47.956;7.830;2023-02-11T10:36:33;3.90;99.90
2729;DHT22;1372;47.956;7.830;2023-02-11T10:39:13;4.00;99.90
2729;DHT22;1372;47.956;7.830;2023-02-11T10:41:46;4.10;99.90
2729;DHT22;1372;47.956;7.830;2023-02-11T10:44:22;4.20;99.90
2729;DHT22;1372;47.956;7.830;2023-02-11T10:46:54;4.20;99.90
2729;DHT22;1372;47.956;7.830;2023-02-11T10:49:36;4.20;99.90
2729;DHT22;1372;47.956;7.830;2023-02-11T10:52:26;4.20;99.90
2729;DHT22;1372;47.956;7.830;2023-02-11T10:55:04;4.30;99.90
2729;DHT22;1372;47.956;7.830;2023-02-11T10:58:03;4.30;99.90
2729;DHT22;1372;47.956;7.830;2023-02-11T11:00:48;4.40;99.90
2729;DHT22;1372;47.956;7.830;2023-02-11T11:03:56;4.50;99.90
2729;DHT22;1372;47.956;7.830;2023-02-11T11:06:31;4.60;99.90
2729;DHT22;1372;47.956;7.830;2023-02-11T11:09:26;4.70;99.90
2729;DHT22;1372;47.956;7.830;2023-02-11T11:11:58;4.80;99.90
2729;DHT22;1372;47.956;7.830;2023-02-11T11:14:32;4.80;99.90
2729;DHT22;1372;47.956;7.830;2023-02-11T11:17:01;4.90;99.90
2729;DHT22;1372;47.956;7.830;2023-02-11T11:19:30;4.90;99.90
2729;DHT22;1372;47.956;7.830;2023-02-11T11:22:03;5.00;99.90
2729;DHT22;1372;47.956;7.830;2023-02-11T11:24:40;5.10;99.90
2729;DHT22;1372;47.956;7.830;2023-02-11T11:27:18;5.20;99.90
2729;DHT22;1372;47.956;7.830;2023-02-11T11:29:52;5.30;99.90
2729;DHT22;1372;47.956;7.830;2023-02-11T11:32:30;5.30;99.90
2729;DHT22;1372;47.956;7.830;2023-02-11T11:35:22;5.50;99.90
2729;DHT22;1372;47.956;7.830;2023-02-11T11:37:54;5.50;99.90
2729;DHT22;1372;47.956;7.830;2023-02-11T11:40:29;5.50;99.90
2729;DHT22;1372;47.956;7.830;2023-02-11T11:43:14;5.50;99.90
2729;DHT22;1372;47.956;7.830;2023-02-11T11:49:12;5.50;99.90
2729;DHT22;1372;47.956;7.830;2023-02-11T11:52:10;5.60;99.90
2729;DHT22;1372;47.956;7.830;2023-02-11T11:54:50;5.60;99.90
2729;DHT22;1372;47.956;7.830;2023-02-11T11:57:25;5.60;99.90
2729;DHT22;1372;47.956;7.830;2023-02-11T11:59:57;5.60;99.90
2729;DHT22;1372;47.956;7.830;2023-02-11T12:05:36;5.80;99.90
2729;DHT22;1372;47.956;7.830;2023-02-11T12:08:15;5.90;99.90
2729;DHT22;1372;47.956;7.830;2023-02-11T12:11:05;6.00;99.90
2729;DHT22;1372;47.956;7.830;2023-02-11T12:13:58;6.00;99.90
2729;DHT22;1372;47.956;7.830;2023-02-11T12:16:39;6.00;99.90
2729;DHT22;1372;47.956;7.830;2023-02-11T12:19:40;6.00;99.90
2729;DHT22;1372;47.956;7.830;2023-02-11T12:22:41;6.10;99.90
2729;DHT22;1372;47.956;7.830;2023-02-11T12:25:26;6.30;99.90
2729;DHT22;1372;47.956;7.830;2023-02-11T12:28:13;6.40;99.90
2729;DHT22;1372;47.956;7.830;2023-02-11T12:31:00;6.40;99.90
2729;DHT22;1372;47.956;7.830;2023-02-11T12:37:13;6.50;99.90
2729;DHT22;1372;47.956;7.830;2023-02-11T12:39:49;6.60;99.90
2729;DHT22;1372;47.956;7.830;2023-02-11T12:42:32;6.60;99.90
2729;DHT22;1372;47.956;7.830;2023-02-11T12:45:37;6.70;99.90
2729;DHT22;1372;47.956;7.830;2023-02-11T12:48:29;6.70;99.90
2729;DHT22;1372;47.956;7.830;2023-02-11T12:51:20;6.70;99.90
2729;DHT22;1372;47.956;7.830;2023-02-11T12:54:13;6.80;99.90
2729;DHT22;1372;47.956;7.830;2023-02-11T12:56:51;7.00;99.90
2729;DHT22;1372;47.956;7.830;2023-02-11T12:59:33;7.10;99.90
2729;DHT22;1372;47.956;7.830;2023-02-11T13:02:16;7.10;99.90
2729;DHT22;1372;47.956;7.830;2023-02-11T13:04:54;7.10;99.90
2729;DHT22;1372;47.956;7.830;2023-02-11T13:07:28;7.10;99.90
2729;DHT22;1372;47.956;7.830;2023-02-11T13:10:04;7.10;99.90
2729;DHT22;1372;47.956;7.830;2023-02-11T13:12:45;7.10;99.90
2729;DHT22;1372;47.956;7.830;2023-02-11T13:15:34;7.10;99.90
2729;DHT22;1372;47.956;7.830;2023-02-11T13:18:09;7.30;99.90
2729;DHT22;1372;47.956;7.830;2023-02-11T13:21:01;7.30;99.90
2729;DHT22;1372;47.956;7.830;2023-02-11T13:23:50;7.30;99.90
2729;DHT22;1372;47.956;7.830;2023-02-11T13:26:29;7.30;99.90
2729;DHT22;1372;47.956;7.830;2023-02-11T13:29:15;7.30;99.90
2729;DHT22;1372;47.956;7.830;2023-02-11T13:31:53;7.40;99.90
2729;DHT22;1372;47.956;7.830;2023-02-11T13:34:26;7.40;99.90
2729;DHT22;1372;47.956;7.830;2023-02-11T13:37:25;7.50;99.90
2729;DHT22;1372;47.956;7.830;2023-02-11T13:39:58;7.40;99.90
2729;DHT22;1372;47.956;7.830;2023-02-11T13:42:32;7.40;99.90
2729;DHT22;1372;47.956;7.830;2023-02-11T13:45:02;7.50;99.90
2729;DHT22;1372;47.956;7.830;2023-02-11T13:47:32;7.60;99.90
2729;DHT22;1372;47.956;7.830;2023-02-11T13:50:05;7.60;99.90
2729;DHT22;1372;47.956;7.830;2023-02-11T13:52:37;7.70;99.90
2729;DHT22;1372;47.956;7.830;2023-02-11T13:55:19;7.70;99.90
2729;DHT22;1372;47.956;7.830;2023-02-11T13:58:16;7.80;99.90
2729;DHT22;1372;47.956;7.830;2023-02-11T14:01:03;7.90;99.90
2729;DHT22;1372;47.956;7.830;2023-02-11T14:03:35;8.00;99.90
2729;DHT22;1372;47.956;7.830;2023-02-11T14:06:26;8.10;99.90
2729;DHT22;1372;47.956;7.830;2023-02-11T14:09:37;8.00;99.90
2729;DHT22;1372;47.956;7.830;2023-02-11T14:12:29;7.90;99.90
2729;DHT22;1372;47.956;7.830;2023-02-11T14:15:25;7.90;99.90
2729;DHT22;1372;47.956;7.830;2023-02-11T14:17:54;8.10;99.90
2729;DHT22;1372;47.956;7.830;2023-02-11T14:20:40;8.20;99.90
2729;DHT22;1372;47.956;7.830;2023-02-11T14:23:24;8.20;99.90
2729;DHT22;1372;47.956;7.830;2023-02-11T14:26:16;8.20;99.90
2729;DHT22;1372;47.956;7.830;2023-02-11T14:28:59;8.20;99.90
2729;DHT22;1372;47.956;7.830;2023-02-11T14:31:38;8.30;99.90
2729;DHT22;1372;47.956;7.830;2023-02-11T14:34:33;8.30;99.90
2729;DHT22;1372;47.956;7.830;2023-02-11T14:37:19;8.30;99.90
2729;DHT22;1372;47.956;7.830;2023-02-11T14:42:37;8.40;99.90
2729;DHT22;1372;47.956;7.830;2023-02-11T14:45:08;8.50;99.90
2729;DHT22;1372;47.956;7.830;2023-02-11T14:47:44;8.50;99.90
2729;DHT22;1372;47.956;7.830;2023-02-11T14:50:19;8.50;99.90
2729;DHT22;1372;47.956;7.830;2023-02-11T14:52:52;8.60;99.90
2729;DHT22;1372;47.956;7.830;2023-02-11T14:55:28;8.60;99.90
2729;DHT22;1372;47.956;7.830;2023-02-11T14:58:07;8.60;99.90
2729;DHT22;1372;47.956;7.830;2023-02-11T15:00:49;8.70;99.90
2729;DHT22;1372;47.956;7.830;2023-02-11T15:03:30;8.70;99.90
2729;DHT22;1372;47.956;7.830;2023-02-11T15:06:05;8.70;99.90
2729;DHT22;1372;47.956;7.830;2023-02-11T15:08:36;8.70;99.90
2729;DHT22;1372;47.956;7.830;2023-02-11T15:11:11;8.70;99.90
2729;DHT22;1372;47.956;7.830;2023-02-11T15:13:41;8.70;99.90
2729;DHT22;1372;47.956;7.830;2023-02-11T15:16:18;8.70;99.90
2729;DHT22;1372;47.956;7.830;2023-02-11T15:18:52;8.80;99.90
2729;DHT22;1372;47.956;7.830;2023-02-11T15:21:23;8.90;99.90
2729;DHT22;1372;47.956;7.830;2023-02-11T15:23:56;9.00;99.90
2729;DHT22;1372;47.956;7.830;2023-02-11T15:26:27;9.10;99.90
2729;DHT22;1372;47.956;7.830;2023-02-11T15:28:57;9.20;99.90
2729;DHT22;1372;47.956;7.830;2023-02-11T15:31:27;9.30;99.90
2729;DHT22;1372;47.956;7.830;2023-02-11T15:34:07;9.40;99.90
2729;DHT22;1372;47.956;7.830;2023-02-11T15:36:37;9.30;99.90
2729;DHT22;1372;47.956;7.830;2023-02-11T15:42:57;9.00;99.90
2729;DHT22;1372;47.956;7.830;2023-02-11T15:45:30;8.70;99.90
2729;DHT22;1372;47.956;7.830;2023-02-11T15:48:11;8.60;99.90
2729;DHT22;1372;47.956;7.830;2023-02-11T15:50:49;8.20;99.90
2729;DHT22;1372;47.956;7.830;2023-02-11T15:53:26;8.00;99.90
2729;DHT22;1372;47.956;7.830;2023-02-11T15:56:02;7.90;99.90
2729;DHT22;1372;47.956;7.830;2023-02-11T15:58:39;7.70;99.90
2729;DHT22;1372;47.956;7.830;2023-02-11T16:01:16;7.50;99.90
2729;DHT22;1372;47.956;7.830;2023-02-11T16:03:49;7.10;99.90
2729;DHT22;1372;47.956;7.830;2023-02-11T16:06:23;7.00;99.90
2729;DHT22;1372;47.956;7.830;2023-02-11T16:09:00;6.90;99.90
2729;DHT22;1372;47.956;7.830;2023-02-11T16:11:32;6.60;99.90
2729;DHT22;1372;47.956;7.830;2023-02-11T16:14:20;6.50;99.90
2729;DHT22;1372;47.956;7.830;2023-02-11T16:16:52;6.00;99.90
2729;DHT22;1372;47.956;7.830;2023-02-11T16:19:24;5.70;99.90
2729;DHT22;1372;47.956;7.830;2023-02-11T16:21:57;5.50;99.90
2729;DHT22;1372;47.956;7.830;2023-02-11T16:24:29;5.30;99.90
2729;DHT22;1372;47.956;7.830;2023-02-11T16:27:01;5.30;99.90
2729;DHT22;1372;47.956;7.830;2023-02-11T16:29:35;5.10;99.90
2729;DHT22;1372;47.956;7.830;2023-02-11T16:32:06;5.00;99.90
2729;DHT22;1372;47.956;7.830;2023-02-11T16:34:37;4.90;99.90
2729;DHT22;1372;47.956;7.830;2023-02-11T16:37:10;4.70;99.90
2729;DHT22;1372;47.956;7.830;2023-02-11T16:39:38;4.60;99.90
2729;DHT22;1372;47.956;7.830;2023-02-11T16:42:08;4.50;99.90
2729;DHT22;1372;47.956;7.830;2023-02-11T16:44:39;4.40;99.90
2729;DHT22;1372;47.956;7.830;2023-02-11T16:47:16;4.20;99.90
2729;DHT22;1372;47.956;7.830;2023-02-11T16:49:48;4.00;99.90
2729;DHT22;1372;47.956;7.830;2023-02-11T16:52:21;3.80;99.90
2729;DHT22;1372;47.956;7.830;2023-02-11T16:54:55;3.80;99.90
2729;DHT22;1372;47.956;7.830;2023-02-11T16:57:27;3.80;99.90
2729;DHT22;1372;47.956;7.830;2023-02-11T16:59:59;3.70;99.90
2729;DHT22;1372;47.956;7.830;2023-02-11T17:02:30;3.50;99.90
2729;DHT22;1372;47.956;7.830;2023-02-11T17:05:01;3.40;99.90
2729;DHT22;1372;47.956;7.830;2023-02-11T17:07:33;3.40;99.90
2729;DHT22;1372;47.956;7.830;2023-02-11T17:10:04;3.30;99.90
2729;DHT22;1372;47.956;7.830;2023-02-11T17:12:35;3.20;99.90
2729;DHT22;1372;47.956;7.830;2023-02-11T17:15:04;3.00;99.90
2729;DHT22;1372;47.956;7.830;2023-02-11T17:17:33;2.90;99.90
2729;DHT22;1372;47.956;7.830;2023-02-11T17:20:03;2.90;99.90
2729;DHT22;1372;47.956;7.830;2023-02-11T17:22:36;2.80;99.90
2729;DHT22;1372;47.956;7.830;2023-02-11T17:25:05;2.70;99.90
2729;DHT22;1372;47.956;7.830;2023-02-11T17:27:35;2.60;99.90
2729;DHT22;1372;47.956;7.830;2023-02-11T17:30:15;2.60;99.90